Time;durP1;ratioP1;P1;durP2;ratioP2;P2;SDS_P1;SDS_P2;PMS_P1;PMS_P2;Temp;Humidity;BMP_temperature;BMP_pressure;BME280_temperature;BME280_humidity;BME280_pressure;Samples;Min_cycle;Max_cycle;Signal;HPM_P1;HPM_P2
2023/12/16 00:02:20;;;;;;;23.60;6.78;;;;;;;9.62;71.84;103632.03;5031979;28;20062;-61
2023/12/16 00:04:48;;;;;;;19.65;6.93;;;;;;;9.92;71.33;103619.84;5034314;28;20049;-61
2023/12/16 00:07:15;;;;;;;19.90;6.03;;;;;;;9.96;70.27;103625.72;5035084;28;20053;-62
2023/12/16 00:09:42;;;;;;;16.55;6.40;;;;;;;9.90;70.33;103627.50;5035295;28;20049;-61
2023/12/16 00:12:10;;;;;;;20.05;6.53;;;;;;;9.69;71.44;103628.06;5035306;28;20054;-61
2023/12/16 00:14:38;;;;;;;21.50;6.93;;;;;;;9.54;71.07;103630.44;5034273;28;20053;-61
2023/12/16 00:17:05;;;;;;;22.00;6.65;;;;;;;9.41;71.92;103636.16;5035398;28;20061;-62
2023/12/16 00:19:32;;;;;;;17.88;6.03;;;;;;;9.57;71.87;103627.22;5035054;28;20534;-62
2023/12/16 00:22:00;;;;;;;21.05;6.47;;;;;;;9.71;71.10;103616.84;5035752;28;20480;-63
2023/12/16 00:24:27;;;;;;;18.77;6.68;;;;;;;9.77;70.81;103627.75;5035592;28;20054;-62
2023/12/16 00:26:55;;;;;;;19.20;5.97;;;;;;;9.82;69.39;103627.88;5050694;28;20411;-61
2023/12/16 00:29:22;;;;;;;18.83;5.70;;;;;;;10.02;68.65;103622.03;5050392;28;20499;-66
2023/12/16 00:31:49;;;;;;;15.57;5.85;;;;;;;9.90;68.71;103626.69;5049939;28;20060;-62
2023/12/16 00:34:16;;;;;;;18.77;5.75;;;;;;;9.94;68.90;103622.34;5034716;28;20049;-63
2023/12/16 00:36:44;;;;;;;23.25;6.60;;;;;;;10.00;68.49;103622.25;5035420;28;20055;-62
2023/12/16 00:39:13;;;;;;;18.27;5.77;;;;;;;9.93;68.72;103618.78;5034698;28;20044;-63
2023/12/16 00:41:41;;;;;;;16.67;5.85;;;;;;;9.93;68.44;103616.03;5031690;28;20061;-62
2023/12/16 00:44:08;;;;;;;19.83;5.80;;;;;;;9.96;68.55;103626.56;5032397;28;20057;-61
2023/12/16 00:46:35;;;;;;;21.63;6.40;;;;;;;10.04;68.46;103619.88;5050161;28;20049;-62
2023/12/16 00:49:03;;;;;;;17.55;5.30;;;;;;;10.38;67.60;103623.69;5033624;28;20061;-63
2023/12/16 00:51:31;;;;;;;16.70;5.95;;;;;;;10.55;66.76;103613.63;5034909;28;20076;-61
2023/12/16 00:53:58;;;;;;;21.48;7.45;;;;;;;10.52;66.48;103619.59;5033650;28;20057;-61
2023/12/16 00:56:26;;;;;;;20.13;6.00;;;;;;;10.58;66.20;103621.41;5034918;28;20066;-62
2023/12/16 00:58:56;;;;;;;23.92;5.93;;;;;;;10.28;66.60;103621.56;5049310;28;20056;-62
2023/12/16 01:01:24;;;;;;;21.45;6.68;;;;;;;10.31;67.36;103622.97;5034866;28;20510;-61
2023/12/16 01:03:51;;;;;;;17.67;6.43;;;;;;;10.40;66.88;103616.88;5034395;28;20392;-62
2023/12/16 01:06:19;;;;;;;17.85;5.68;;;;;;;10.50;66.81;103616.25;5034901;28;20053;-62
2023/12/16 01:08:46;;;;;;;19.00;5.93;;;;;;;10.45;67.05;103616.97;5050064;28;20060;-62
2023/12/16 01:11:13;;;;;;;18.95;6.68;;;;;;;10.45;66.85;103603.22;5034614;28;20053;-62
2023/12/16 01:13:41;;;;;;;20.60;6.55;;;;;;;10.43;67.59;103608.13;5034375;28;20045;-62
2023/12/16 01:16:08;;;;;;;20.15;6.38;;;;;;;10.42;66.97;103611.13;5034797;28;20060;-61
2023/12/16 01:18:35;;;;;;;20.50;6.13;;;;;;;10.23;67.72;103615.94;5034201;28;20050;-62
2023/12/16 01:21:05;;;;;;;19.48;6.53;;;;;;;10.26;67.68;103609.09;5034462;28;20041;-62
2023/12/16 01:23:32;;;;;;;18.07;6.23;;;;;;;10.23;67.52;103610.44;5034124;28;20049;-63
2023/12/16 01:26:00;;;;;;;16.10;5.72;;;;;;;10.54;67.44;103601.75;5034209;28;20060;-62
2023/12/16 01:28:27;;;;;;;20.88;6.57;;;;;;;10.28;67.61;103602.28;5032855;28;20054;-62
2023/12/16 01:30:54;;;;;;;18.00;6.00;;;;;;;10.22;67.58;103594.97;5033041;28;20054;-62
2023/12/16 01:33:22;;;;;;;19.48;6.07;;;;;;;9.96;68.28;103609.19;5048825;28;20046;-62
2023/12/16 01:35:49;;;;;;;20.45;5.55;;;;;;;10.08;68.04;103616.41;5034181;28;20053;-62
2023/12/16 01:38:17;;;;;;;21.27;5.18;;;;;;;10.18;67.50;103621.34;5015769;28;20064;-61
2023/12/16 01:40:44;;;;;;;19.55;5.63;;;;;;;10.13;67.36;103612.94;5034276;28;20082;-62
2023/12/16 01:43:12;;;;;;;16.08;5.22;;;;;;;9.96;67.79;103615.53;5034209;28;20037;-61
2023/12/16 01:45:40;;;;;;;20.85;5.65;;;;;;;9.94;68.21;103617.69;5032180;28;20057;-62
2023/12/16 01:48:10;;;;;;;16.55;5.47;;;;;;;10.00;68.30;103616.75;5034031;28;20054;-62
2023/12/16 01:50:38;;;;;;;15.38;5.63;;;;;;;10.12;67.90;103625.03;5032608;28;20072;-62
2023/12/16 01:53:05;;;;;;;18.48;5.05;;;;;;;10.18;68.13;103626.84;5015227;28;20495;-62
2023/12/16 01:55:33;;;;;;;23.77;5.63;;;;;;;10.03;68.70;103631.94;5029945;28;20053;-61
2023/12/16 01:58:02;;;;;;;17.77;5.53;;;;;;;10.04;68.64;103630.88;5032384;28;20072;-62
2023/12/16 02:00:30;;;;;;;26.37;7.17;;;;;;;10.02;69.06;103625.59;5015699;28;20072;-61
2023/12/16 02:02:57;;;;;;;22.45;6.80;;;;;;;9.84;69.82;103633.97;4999454;28;20499;-62
2023/12/16 02:05:24;;;;;;;18.60;6.03;;;;;;;9.78;70.11;103636.84;5033411;28;20045;-61
2023/12/16 02:07:52;;;;;;;18.23;6.40;;;;;;;9.89;69.86;103628.59;5032939;28;20057;-61
2023/12/16 02:10:19;;;;;;;23.95;6.20;;;;;;;9.99;70.02;103642.59;5033540;28;20480;-62
2023/12/16 02:12:46;;;;;;;26.10;7.00;;;;;;;9.87;69.69;103639.00;5033724;28;20472;-62
2023/12/16 02:15:14;;;;;;;21.55;6.50;;;;;;;9.98;69.52;103640.94;5033528;28;20060;-61
2023/12/16 02:17:42;;;;;;;26.95;7.53;;;;;;;9.97;69.51;103641.19;5033249;28;20403;-61
2023/12/16 02:20:10;;;;;;;35.00;9.05;;;;;;;9.83;70.05;103636.97;5033949;28;20071;-63
2023/12/16 02:22:40;;;;;;;54.55;14.98;;;;;;;9.82;70.15;103627.88;5048423;28;20046;-64
2023/12/16 02:25:11;;;;;;;77.65;26.40;;;;;;;9.72;69.97;103632.28;5048373;28;20064;-62
2023/12/16 02:27:40;;;;;;;95.10;36.17;;;;;;;9.63;70.30;103628.19;5047438;28;20053;-62
2023/12/16 02:30:09;;;;;;;75.03;30.63;;;;;;;9.62;70.37;103623.78;5033157;28;20053;-62
2023/12/16 02:32:36;;;;;;;78.07;31.30;;;;;;;9.70;69.62;103617.91;5033204;28;20061;-62
2023/12/16 02:35:04;;;;;;;78.00;31.88;;;;;;;9.66;69.70;103630.47;5032963;28;20060;-63
2023/12/16 02:37:31;;;;;;;91.63;37.28;;;;;;;9.75;69.07;103627.13;5048427;28;20052;-62
2023/12/16 02:39:59;;;;;;;83.03;36.58;;;;;;;9.71;68.98;103622.34;5033014;28;20045;-63
2023/12/16 02:42:26;;;;;;;79.43;34.75;;;;;;;9.73;68.72;103621.03;5033214;28;20049;-61
2023/12/16 02:44:54;;;;;;;74.13;30.25;;;;;;;9.69;69.26;103636.31;5027536;28;20469;-60
2023/12/16 02:47:21;;;;;;;59.20;25.48;;;;;;;9.40;69.93;103633.63;5028668;28;20153;-61
2023/12/16 02:49:48;;;;;;;54.90;22.52;;;;;;;9.56;69.96;103636.56;5011686;28;20046;-62
2023/12/16 02:52:16;;;;;;;32.35;12.85;;;;;;;9.50;69.99;103639.41;5025299;28;20503;-61
2023/12/16 02:54:43;;;;;;;34.63;12.38;;;;;;;9.29;70.60;103649.03;5031574;28;20050;-63
2023/12/16 02:57:11;;;;;;;37.05;15.05;;;;;;;9.28;70.59;103643.75;5033118;28;20053;-63
2023/12/16 02:59:38;;;;;;;34.22;16.17;;;;;;;9.34;70.80;103651.94;5048466;28;20068;-62
2023/12/16 03:02:05;;;;;;;74.03;29.42;;;;;;;9.44;70.63;103648.59;5033537;28;20049;-61
2023/12/16 03:04:32;;;;;;;106.70;42.88;;;;;;;9.38;69.41;103650.38;5032726;28;20053;-61
2023/12/16 03:07:00;;;;;;;92.30;35.80;;;;;;;9.04;70.18;103646.44;5032820;28;20046;-64
2023/12/16 03:09:28;;;;;;;97.65;37.03;;;;;;;9.18;70.34;103651.72;5031096;28;20058;-61
2023/12/16 03:11:55;;;;;;;142.50;52.10;;;;;;;9.29;70.12;103661.94;5036645;28;20049;-60
2023/12/16 03:14:22;;;;;;;147.00;52.50;;;;;;;9.35;70.19;103658.25;5036846;28;20045;-62
2023/12/16 03:16:50;;;;;;;151.18;55.83;;;;;;;9.26;70.26;103663.25;5035758;28;20065;-62
2023/12/16 03:19:17;;;;;;;192.60;62.58;;;;;;;9.19;70.50;103670.75;5034738;28;20518;-61
2023/12/16 03:21:45;;;;;;;201.63;67.50;;;;;;;9.27;70.75;103670.44;5052357;28;20056;-62
2023/12/16 03:24:12;;;;;;;357.52;124.50;;;;;;;9.28;71.13;103672.09;5037132;28;20048;-62
2023/12/16 03:26:43;;;;;;;409.33;144.55;;;;;;;9.29;71.29;103670.19;5052557;28;20061;-61
2023/12/16 03:29:54;;;;;;;690.97;237.57;;;;;;;9.44;71.37;103667.84;5035711;28;20596;-63
2023/12/16 03:38:11;;;;;;;;;;;;;;;9.07;73.63;103670.69;4993920;28;20429;-62
2023/12/16 03:50:42;;;;;;;27.05;8.40;;;;;;;9.10;74.86;103652.88;4898478;28;20048;-63
2023/12/16 03:54:46;;;;;;;23.52;7.22;;;;;;;9.32;74.12;103651.31;4862756;29;20611;-63
2023/12/16 04:02:47;;;;;;;20.42;6.88;;;;;;;9.33;73.64;103638.41;4900965;29;20052;-65
2023/12/16 04:06:38;;;;;;;18.75;6.00;;;;;;;9.02;73.71;103650.47;4914924;29;20531;-62
2023/12/16 04:10:28;;;;;;;21.75;5.72;;;;;;;9.03;73.28;103652.97;4902918;29;20514;-63
2023/12/16 04:12:56;;;;;;;17.38;5.70;;;;;;;8.87;73.32;103653.59;4915960;29;20567;-63
2023/12/16 04:15:38;;;;;;;19.02;5.78;;;;;;;8.98;73.61;103655.59;4923801;29;20067;-65
2023/12/16 04:18:18;;;;;;;19.25;5.20;;;;;;;9.47;72.50;103664.63;4936019;29;20059;-65
2023/12/16 04:20:49;;;;;;;19.52;5.55;;;;;;;9.36;70.99;103651.69;4934691;29;20059;-64
2023/12/16 04:23:33;;;;;;;18.67;5.55;;;;;;;9.13;71.41;103647.75;4933169;29;20051;-65
2023/12/16 04:29:25;;;;;;;19.30;5.15;;;;;;;9.42;70.84;103636.97;4992900;28;20417;-65
2023/12/16 04:31:53;;;;;;;20.27;5.75;;;;;;;9.25;70.65;103639.56;5014136;28;20600;-65
2023/12/16 04:34:29;;;;;;;14.02;4.63;;;;;;;9.35;70.91;103636.25;5015626;28;20049;-65
2023/12/16 04:37:08;;;;;;;22.55;5.25;;;;;;;9.46;69.90;103640.94;5030805;28;20077;-65
2023/12/16 04:39:53;;;;;;;20.00;5.22;;;;;;;9.20;70.28;103642.19;5030306;28;20057;-64
2023/12/16 04:42:38;;;;;;;12.45;4.60;;;;;;;9.25;70.34;103644.22;5028755;28;20057;-65
2023/12/16 04:54:54;;;;;;;14.70;3.85;;;;;;;9.42;69.72;103637.81;4887231;29;20048;-61
2023/12/16 04:58:19;;;;;;;19.47;5.00;;;;;;;9.59;70.20;103636.06;4866186;29;20060;-62
2023/12/16 05:01:22;;;;;;;15.57;4.65;;;;;;;9.64;69.50;103636.19;4884733;29;20301;-62
2023/12/16 05:03:50;;;;;;;16.45;4.75;;;;;;;9.68;69.31;103633.81;4880628;29;20063;-62
2023/12/16 05:06:17;;;;;;;13.32;4.47;;;;;;;9.69;69.26;103641.84;4939564;28;20062;-62
2023/12/16 05:08:45;;;;;;;13.13;4.55;;;;;;;9.83;68.76;103635.03;4973453;28;20064;-61
2023/12/16 05:11:12;;;;;;;16.85;4.47;;;;;;;9.78;68.82;103639.59;4973031;28;20047;-62
2023/12/16 05:13:39;;;;;;;15.65;4.32;;;;;;;9.80;69.14;103637.41;4972755;28;20062;-62
2023/12/16 05:16:07;;;;;;;19.15;4.38;;;;;;;9.88;68.46;103632.44;4972670;28;20058;-61
2023/12/16 05:18:36;;;;;;;19.08;4.88;;;;;;;9.73;68.85;103634.78;4972199;28;20799;-62
2023/12/16 05:21:03;;;;;;;19.65;4.95;;;;;;;9.76;68.57;103636.25;4972470;28;20050;-62
2023/12/16 05:23:31;;;;;;;18.27;4.50;;;;;;;9.59;69.12;103638.81;4972211;28;20762;-62
2023/12/16 05:25:58;;;;;;;15.18;3.97;;;;;;;9.58;69.41;103637.16;4955216;28;20065;-63
2023/12/16 05:28:25;;;;;;;15.38;5.03;;;;;;;9.74;69.21;103627.38;5005102;28;20054;-61
2023/12/16 05:30:52;;;;;;;16.15;4.20;;;;;;;9.76;69.18;103625.22;5033410;28;20045;-60
2023/12/16 05:33:20;;;;;;;16.10;3.90;;;;;;;9.89;69.07;103627.75;5033165;28;20459;-61
2023/12/16 05:35:47;;;;;;;20.52;4.45;;;;;;;9.58;69.73;103623.41;5033774;28;20055;-62
2023/12/16 05:38:14;;;;;;;17.05;4.10;;;;;;;9.34;70.66;103635.44;5032382;28;20049;-62
2023/12/16 05:40:47;;;;;;;18.02;4.38;;;;;;;9.24;71.47;103628.81;5032180;28;20056;-62
2023/12/16 05:43:14;;;;;;;18.55;4.20;;;;;;;9.34;71.74;103626.31;5033392;28;20045;-62
2023/12/16 05:45:42;;;;;;;17.17;4.88;;;;;;;9.48;71.53;103630.56;5048571;28;20053;-63
2023/12/16 05:48:10;;;;;;;15.88;4.68;;;;;;;9.63;70.92;103620.78;5048290;28;20049;-61
2023/12/16 05:50:41;;;;;;;15.80;4.20;;;;;;;9.62;70.74;103626.53;5033040;28;20495;-63
2023/12/16 05:53:08;;;;;;;17.63;4.30;;;;;;;9.54;70.86;103630.44;5047785;28;20072;-62
2023/12/16 05:55:35;;;;;;;21.88;4.45;;;;;;;9.67;70.13;103623.91;5031206;28;20049;-61
2023/12/16 05:58:27;;;;;;;15.75;4.88;;;;;;;9.88;69.97;103626.06;5033008;28;20056;-65
2023/12/16 06:00:55;;;;;;;16.10;4.00;;;;;;;9.85;69.91;103618.31;5033249;28;20049;-62
2023/12/16 06:03:22;;;;;;;18.30;4.30;;;;;;;9.74;70.17;103625.47;5032588;28;20061;-62
2023/12/16 06:05:50;;;;;;;18.38;4.93;;;;;;;9.64;70.35;103632.63;5030827;28;20053;-62
2023/12/16 06:08:17;;;;;;;14.98;4.85;;;;;;;9.68;70.73;103639.31;5033246;28;20057;-62
2023/12/16 06:10:44;;;;;;;18.55;4.40;;;;;;;9.75;70.85;103629.03;5032157;28;20058;-61
2023/12/16 06:13:11;;;;;;;22.10;4.85;;;;;;;9.85;70.57;103635.63;5031072;28;20050;-63
2023/12/16 06:15:39;;;;;;;13.55;4.25;;;;;;;9.85;70.61;103627.38;5032194;28;20042;-61
2023/12/16 06:18:06;;;;;;;16.05;4.95;;;;;;;9.49;71.15;103623.97;5032713;28;20060;-61
2023/12/16 06:20:34;;;;;;;17.15;5.05;;;;;;;9.42;71.86;103625.97;5046536;28;20060;-62
2023/12/16 06:23:02;;;;;;;13.75;4.70;;;;;;;9.45;71.98;103626.34;5047602;28;20049;-61
2023/12/16 06:25:29;;;;;;;14.57;4.47;;;;;;;9.29;72.23;103634.44;5032140;28;20045;-61
2023/12/16 06:27:56;;;;;;;23.75;5.07;;;;;;;9.29;72.78;103634.44;5030770;28;20046;-62
2023/12/16 06:30:24;;;;;;;17.42;5.18;;;;;;;9.58;72.13;103642.66;5031818;28;20050;-62
2023/12/16 06:32:51;;;;;;;16.30;4.38;;;;;;;9.50;71.25;103639.41;5032644;28;20060;-61
2023/12/16 06:35:19;;;;;;;22.48;4.95;;;;;;;9.28;72.03;103652.84;5032186;28;20041;-62
2023/12/16 06:37:46;;;;;;;17.10;5.07;;;;;;;9.23;72.40;103654.63;5031999;28;20052;-64
2023/12/16 06:40:28;;;;;;;15.68;4.90;;;;;;;9.29;72.20;103653.69;5032246;28;20081;-62
2023/12/16 06:42:58;;;;;;;18.13;5.20;;;;;;;9.09;72.43;103646.56;5032866;28;20492;-64
2023/12/16 06:45:25;;;;;;;;;;;;;;;9.36;72.25;103651.69;5032198;28;20053;-63
2023/12/16 06:47:59;;;;;;;15.20;4.82;;;;;;;9.17;72.90;103652.81;5012777;28;19922;-61
2023/12/16 06:50:30;;;;;;;17.55;5.35;;;;;;;9.01;73.15;103655.13;5012659;28;20066;-63
2023/12/16 06:52:57;;;;;;;23.05;5.75;;;;;;;9.26;73.20;103660.50;5012890;28;20065;-62
2023/12/16 06:55:33;;;;;;;20.05;5.40;;;;;;;9.04;73.22;103662.91;5011017;28;20045;-63
2023/12/16 06:58:04;;;;;;;14.88;5.15;;;;;;;8.92;73.31;103656.53;5023018;28;20053;-62
2023/12/16 07:00:31;;;;;;;19.83;5.40;;;;;;;8.80;74.09;103663.84;5032502;28;20045;-62
2023/12/16 07:02:59;;;;;;;14.65;4.72;;;;;;;8.80;73.46;103666.59;5032027;28;20060;-63
2023/12/16 07:05:28;;;;;;;22.27;5.70;;;;;;;9.13;73.12;103670.84;5031887;28;20049;-63
2023/12/16 07:07:55;;;;;;;20.85;5.30;;;;;;;8.91;73.41;103676.81;5031887;28;20045;-63
2023/12/16 07:10:22;;;;;;;16.58;5.32;;;;;;;8.94;73.89;103672.78;5029986;28;20064;-62
2023/12/16 07:12:50;;;;;;;22.33;5.45;;;;;;;8.96;73.80;103676.16;5030659;28;20167;-62
2023/12/16 07:15:19;;;;;;;21.90;5.75;;;;;;;9.06;73.55;103677.28;5029832;28;20527;-62
2023/12/16 07:17:47;;;;;;;17.83;6.17;;;;;;;8.98;73.73;103671.22;5030788;28;20053;-62
2023/12/16 07:20:14;;;;;;;17.05;5.35;;;;;;;9.02;73.54;103677.97;5029552;28;20049;-62
2023/12/16 07:22:42;;;;;;;24.23;5.20;;;;;;;9.05;73.67;103678.34;5030037;28;20045;-61
2023/12/16 07:25:09;;;;;;;17.90;5.82;;;;;;;9.22;73.46;103675.81;5031988;28;20614;-62
2023/12/16 07:27:36;;;;;;;18.60;6.22;;;;;;;9.18;72.98;103680.06;5031472;28;20045;-62
2023/12/16 07:30:05;;;;;;;19.83;5.43;;;;;;;9.10;73.01;103675.72;5030756;28;20068;-62
2023/12/16 07:32:40;;;;;;;25.85;6.35;;;;;;;8.91;73.60;103676.81;5046003;28;20076;-63
2023/12/16 07:35:15;;;;;;;19.23;5.57;;;;;;;8.79;74.37;103678.66;5045726;28;20120;-62
2023/12/16 07:37:43;;;;;;;18.10;6.38;;;;;;;8.78;75.16;103684.41;5030969;28;20050;-63
2023/12/16 07:40:10;;;;;;;18.85;5.13;;;;;;;8.77;75.33;103686.28;5031347;28;20053;-63
2023/12/16 07:42:38;;;;;;;12.85;5.30;;;;;;;8.79;75.55;103692.41;5031899;28;20404;-63
2023/12/16 07:45:12;;;;;;;16.73;5.30;;;;;;;8.89;75.47;103697.38;5028773;28;20046;-61
2023/12/16 07:47:40;;;;;;;19.13;6.28;;;;;;;8.83;75.78;103707.38;5029546;28;20060;-62
2023/12/16 07:50:10;;;;;;;17.40;5.75;;;;;;;8.87;75.88;103707.75;5031044;28;20057;-62
2023/12/16 07:52:37;;;;;;;21.67;5.38;;;;;;;8.90;75.64;103710.03;5031592;28;20496;-62
2023/12/16 07:55:05;;;;;;;25.02;6.65;;;;;;;9.13;75.31;103710.19;5031585;28;20045;-62
2023/12/16 07:58:05;;;;;;;;;;;;;;;;;;;;;
2023/12/16 08:00:38;;;;;;;28.08;6.85;;;;;;;9.12;75.10;103722.22;5030933;28;20049;-62
2023/12/16 08:03:06;;;;;;;18.77;5.47;;;;;;;9.05;75.06;103719.56;5036494;28;20060;-62
2023/12/16 08:05:33;;;;;;;20.17;5.72;;;;;;;9.09;75.28;103719.97;5054417;28;20052;-63
2023/12/16 08:08:01;;;;;;;17.25;6.13;;;;;;;9.07;75.18;103725.69;5035585;28;20061;-62
2023/12/16 08:10:29;;;;;;;21.90;9.50;;;;;;;8.94;75.58;103720.34;5026697;28;20052;-62
2023/12/16 08:12:57;;;;;;;35.10;10.50;;;;;;;8.87;75.88;103725.06;5032978;28;20056;-61
2023/12/16 08:15:24;;;;;;;24.00;6.13;;;;;;;9.01;75.93;103723.84;5037337;28;20045;-62
2023/12/16 08:17:51;;;;;;;17.23;6.05;;;;;;;8.94;75.92;103727.75;5034643;28;20061;-61
2023/12/16 08:20:19;;;;;;;19.77;5.95;;;;;;;8.99;75.73;103720.50;5033245;28;20080;-62
2023/12/16 08:22:46;;;;;;;19.10;5.93;;;;;;;9.02;75.73;103730.19;5033140;28;20045;-62
2023/12/16 08:25:16;;;;;;;23.63;6.30;;;;;;;9.10;75.13;103729.88;5033738;28;20476;-64
2023/12/16 08:27:43;;;;;;;;;;;;;;;8.95;75.48;103734.94;5049658;28;20053;-63
2023/12/16 08:30:13;;;;;;;24.42;6.82;;;;;;;8.90;75.89;103732.88;5028258;28;19944;-63
2023/12/16 08:32:41;;;;;;;19.45;6.20;;;;;;;9.00;75.36;103732.31;5030489;28;20057;-63
2023/12/16 08:35:08;;;;;;;17.85;6.47;;;;;;;9.17;75.20;103729.81;5040600;28;20038;-63
2023/12/16 08:37:36;;;;;;;21.10;7.10;;;;;;;9.21;74.45;103733.75;5015417;28;20058;-64
2023/12/16 08:40:05;;;;;;;19.02;7.05;;;;;;;9.28;74.32;103738.13;5019361;28;20681;-63
2023/12/16 08:42:32;;;;;;;24.40;7.78;;;;;;;9.25;74.15;103738.59;5028668;28;20058;-62
2023/12/16 08:45:00;;;;;;;22.65;7.20;;;;;;;9.17;74.38;103744.38;5015423;28;20057;-62
2023/12/16 08:47:27;;;;;;;24.50;7.68;;;;;;;9.28;74.30;103743.63;5028268;28;20429;-62
2023/12/16 08:49:55;;;;;;;18.08;7.57;;;;;;;9.21;73.97;103753.00;5018130;28;20053;-62
2023/12/16 08:52:23;;;;;;;20.73;7.97;;;;;;;9.17;74.13;103752.63;5032147;28;20053;-62
2023/12/16 08:54:50;;;;;;;29.38;7.72;;;;;;;9.28;73.53;103759.25;5031832;28;20120;-62
2023/12/16 08:57:18;;;;;;;21.15;7.68;;;;;;;9.36;73.62;103754.31;5028487;28;20042;-63
2023/12/16 08:59:45;;;;;;;22.80;7.20;;;;;;;9.25;73.34;103762.50;5018003;28;20057;-62
2023/12/16 09:02:12;;;;;;;22.83;7.47;;;;;;;9.40;72.82;103766.53;5030951;28;20053;-62
2023/12/16 09:04:39;;;;;;;27.05;7.55;;;;;;;9.05;73.13;103758.06;5031369;28;20045;-61
2023/12/16 09:07:07;;;;;;;24.63;8.07;;;;;;;9.22;73.35;103765.72;5032605;28;20044;-62
2023/12/16 09:09:34;;;;;;;21.77;7.53;;;;;;;9.23;73.03;103759.13;5031363;28;20052;-63
2023/12/16 09:12:02;;;;;;;19.55;7.35;;;;;;;9.39;72.98;103764.00;5024745;28;20042;-61
2023/12/16 09:14:29;;;;;;;25.85;7.45;;;;;;;9.52;72.32;103761.91;5018683;28;20552;-64
2023/12/16 09:16:56;;;;;;;23.88;7.47;;;;;;;9.59;71.60;103759.09;5018647;28;20425;-64
2023/12/16 09:19:25;;;;;;;23.83;8.00;;;;;;;9.78;71.11;103760.72;5028543;28;20056;-61
2023/12/16 09:21:52;;;;;;;29.92;8.57;;;;;;;9.59;71.69;103750.84;5030463;28;20042;-62
2023/12/16 09:24:20;;;;;;;28.90;14.20;;;;;;;9.64;71.69;103748.22;5032945;28;20053;-63
2023/12/16 09:26:48;;;;;;;20.00;8.40;;;;;;;9.77;71.87;103748.00;5030476;28;20057;-62
2023/12/16 09:29:15;;;;;;;24.75;8.07;;;;;;;9.83;71.33;103747.91;5032509;28;20385;-63
2023/12/16 09:31:43;;;;;;;21.55;8.18;;;;;;;9.89;71.34;103749.72;5014654;28;20053;-64
2023/12/16 09:34:12;;;;;;;28.33;9.50;;;;;;;9.97;71.00;103748.56;5031313;28;20480;-63
2023/12/16 09:36:40;;;;;;;19.88;8.45;;;;;;;10.05;71.02;103754.56;5031322;28;20045;-64
2023/12/16 09:39:10;;;;;;;21.58;8.13;;;;;;;9.88;70.79;103759.06;5045209;28;20058;-64
2023/12/16 09:41:42;;;;;;;20.88;8.57;;;;;;;9.68;71.28;103764.03;5032782;28;20412;-63
2023/12/16 09:44:13;;;;;;;21.23;7.53;;;;;;;9.89;70.33;103765.41;5029439;28;20064;-65
2023/12/16 09:46:41;;;;;;;25.77;7.68;;;;;;;9.63;70.44;103768.53;5032194;28;20519;-63
2023/12/16 09:49:08;;;;;;;18.92;7.95;;;;;;;9.66;70.18;103763.41;5032061;28;20052;-64
2023/12/16 09:51:35;;;;;;;26.30;8.43;;;;;;;9.92;69.62;103770.47;5031551;28;20167;-62
2023/12/16 09:54:03;;;;;;;23.80;8.38;;;;;;;9.93;69.17;103766.63;5029135;28;20064;-64
2023/12/16 09:56:33;;;;;;;23.42;8.00;;;;;;;9.88;69.24;103774.75;5027064;28;20160;-62
2023/12/16 09:59:03;;;;;;;21.65;7.70;;;;;;;10.10;68.56;103775.91;5030012;28;20049;-63
2023/12/16 10:01:30;;;;;;;21.40;8.02;;;;;;;10.19;68.02;103772.59;5030852;28;20041;-61
2023/12/16 10:03:58;;;;;;;20.25;7.07;;;;;;;10.11;67.73;103769.34;5031771;28;20045;-63
2023/12/16 10:06:26;;;;;;;18.95;6.97;;;;;;;10.19;66.64;103774.50;5031342;28;20052;-62
2023/12/16 10:08:55;;;;;;;17.88;6.72;;;;;;;10.23;66.06;103770.19;5030081;28;20050;-64
2023/12/16 10:11:23;;;;;;;18.30;6.60;;;;;;;10.03;65.56;103776.00;5031033;28;20060;-62
2023/12/16 10:13:56;;;;;;;18.35;6.47;;;;;;;10.08;65.23;103767.88;5030382;28;20068;-63
2023/12/16 10:16:24;;;;;;;24.45;7.18;;;;;;;10.42;64.51;103771.78;5027394;28;20056;-62
2023/12/16 10:18:54;;;;;;;21.05;6.82;;;;;;;10.46;64.02;103767.44;5029347;28;20057;-64
2023/12/16 10:21:25;;;;;;;;;;;;;;;10.52;63.57;103766.50;5030843;28;20514;-62
2023/12/16 10:23:55;;;;;;;24.38;7.18;;;;;;;10.57;63.19;103763.03;5029589;28;20567;-61
2023/12/16 10:26:25;;;;;;;22.63;7.40;;;;;;;10.31;63.31;103764.34;5022511;28;20045;-64
2023/12/16 10:28:54;;;;;;;25.60;7.85;;;;;;;10.32;63.50;103763.25;5023670;28;20068;-64
2023/12/16 10:31:35;;;;;;;21.48;7.13;;;;;;;10.67;63.37;103757.78;5028060;28;20046;-62
2023/12/16 10:34:02;;;;;;;19.40;6.78;;;;;;;10.91;63.29;103757.50;5030586;28;20540;-62
2023/12/16 10:36:31;;;;;;;22.83;7.28;;;;;;;10.62;62.33;103752.97;5027885;28;20048;-62
2023/12/16 10:38:58;;;;;;;20.95;7.82;;;;;;;10.60;62.22;103752.34;5016961;28;20416;-62
2023/12/16 10:41:25;;;;;;;29.08;10.32;;;;;;;10.76;62.02;103754.41;5024143;28;20042;-62
2023/12/16 10:44:02;;;;;;;23.58;8.10;;;;;;;10.63;62.58;103754.66;5035329;28;20056;-66
2023/12/16 10:46:34;;;;;;;23.02;7.65;;;;;;;10.84;62.34;103739.41;5036209;28;20045;-62
2023/12/16 10:49:06;;;;;;;23.20;7.28;;;;;;;10.93;61.62;103744.31;5028515;28;20060;-62
2023/12/16 10:51:37;;;;;;;19.05;6.80;;;;;;;11.02;61.08;103742.00;5022095;28;20544;-61
2023/12/16 10:54:13;;;;;;;22.27;7.15;;;;;;;11.01;60.40;103729.31;5019715;28;20048;-62
2023/12/16 10:56:52;;;;;;;17.65;6.70;;;;;;;10.93;60.37;103733.28;5011373;28;20046;-64
2023/12/16 10:59:29;;;;;;;22.20;6.67;;;;;;;10.90;60.48;103728.25;5016885;28;20061;-64
2023/12/16 11:01:57;;;;;;;19.27;7.00;;;;;;;10.79;60.30;103731.03;5035803;28;20297;-63
2023/12/16 11:04:32;;;;;;;26.20;7.28;;;;;;;10.72;59.36;103724.81;5016150;28;20041;-62
2023/12/16 11:07:24;;;;;;;20.17;6.35;;;;;;;10.83;59.66;103724.78;5020782;28;20338;-63
2023/12/16 11:10:38;;;;;;;19.50;5.70;;;;;;;10.74;59.37;103723.47;5010820;28;20377;-62
2023/12/16 11:13:05;;;;;;;15.98;5.07;;;;;;;10.80;59.08;103729.94;5023210;28;20041;-61
2023/12/16 11:15:38;;;;;;;18.55;5.57;;;;;;;10.72;59.06;103716.53;5042319;28;20065;-62
2023/12/16 11:18:23;;;;;;;19.85;6.07;;;;;;;10.88;58.96;103718.56;5020872;28;20413;-64
2023/12/16 11:20:53;;;;;;;25.48;5.63;;;;;;;10.87;59.03;103723.22;5020728;28;20072;-63
2023/12/16 11:23:54;;;;;;;17.95;4.38;;;;;;;10.71;58.82;103723.13;5024988;28;20421;-62
2023/12/16 11:26:27;;;;;;;15.10;5.30;;;;;;;10.83;59.05;103726.69;5012765;28;20038;-64
2023/12/16 11:29:02;;;;;;;21.73;4.88;;;;;;;11.18;57.80;103724.69;5035468;28;20041;-62
2023/12/16 11:31:30;;;;;;;17.27;4.35;;;;;;;11.34;57.72;103718.41;5023618;28;20052;-62
2023/12/16 11:33:57;;;;;;;19.95;4.55;;;;;;;11.45;56.54;103713.94;5047437;28;20061;-62
2023/12/16 11:36:52;;;;;;;15.70;4.80;;;;;;;10.96;57.18;103707.13;5048023;28;20056;-62
2023/12/16 11:39:40;;;;;;;14.10;4.28;;;;;;;10.92;57.41;103705.94;5026858;28;20069;-63
2023/12/16 11:43:12;;;;;;;;;;;;;;;;;;;;;
2023/12/16 11:46:39;;;;;;;14.40;4.10;;;;;;;11.53;56.99;103699.72;5027466;28;20026;-60
2023/12/16 11:49:11;;;;;;;14.73;3.70;;;;;;;11.46;56.29;103694.38;5029541;28;20492;-62
2023/12/16 11:51:39;;;;;;;21.90;4.43;;;;;;;11.57;56.20;103690.72;5048591;28;20057;-61
2023/12/16 11:54:08;;;;;;;15.40;3.88;;;;;;;11.25;56.94;103690.38;5039185;28;20053;-61
2023/12/16 11:56:36;;;;;;;20.23;3.90;;;;;;;11.55;56.47;103681.84;5033522;28;20050;-62
2023/12/16 11:59:04;;;;;;;23.30;4.53;;;;;;;11.57;55.92;103678.84;5014191;28;20049;-61
2023/12/16 12:01:32;;;;;;;17.80;3.97;;;;;;;11.77;55.76;103673.72;5031195;28;20049;-62
2023/12/16 12:04:02;;;;;;;11.70;3.30;;;;;;;11.50;56.22;103676.22;5029518;28;20067;-62
2023/12/16 12:06:29;;;;;;;14.15;3.33;;;;;;;11.23;56.70;103673.22;5033956;28;20523;-63
2023/12/16 12:08:57;;;;;;;18.88;3.88;;;;;;;11.30;56.54;103662.88;5030513;28;20072;-62
2023/12/16 12:11:25;;;;;;;20.30;3.35;;;;;;;11.61;56.23;103661.50;5035791;28;20444;-60
2023/12/16 12:13:55;;;;;;;15.95;4.03;;;;;;;11.71;56.43;103664.50;5027695;28;20045;-62
2023/12/16 12:16:28;;;;;;;21.30;3.75;;;;;;;11.86;55.75;103658.38;5032545;28;20468;-60
2023/12/16 12:18:56;;;;;;;16.33;4.25;;;;;;;11.78;55.38;103653.28;5028785;28;20056;-63